Time;durP1;ratioP1;P1;durP2;ratioP2;P2;SDS_P1;SDS_P2;PMS_P1;PMS_P2;Temp;Humidity;BMP_temperature;BMP_pressure;BME280_temperature;BME280_humidity;BME280_pressure;Samples;Min_cycle;Max_cycle;Signal;HPM_P1;HPM_P2
2023/07/10 00:00:52;;;;;;;23.17;12.15;;;21.40;99.90;;;;;;5141194;27;45407;-72
2023/07/10 00:03:19;;;;;;;23.38;12.02;;;21.40;99.90;;;;;;5135797;27;45447;-72
2023/07/10 00:05:46;;;;;;;30.65;12.10;;;21.40;99.90;;;;;;5134182;27;45428;-72
2023/07/10 00:08:12;;;;;;;32.88;13.32;;;21.40;99.90;;;;;;5133463;27;47487;-72
2023/07/10 00:10:39;;;;;;;21.58;12.40;;;21.40;99.90;;;;;;5130450;27;45465;-72
2023/07/10 00:13:06;;;;;;;22.58;13.52;;;21.40;99.90;;;;;;5126395;27;45397;-72
2023/07/10 00:15:33;;;;;;;25.00;13.45;;;21.30;99.90;;;;;;5138556;27;45316;-72
2023/07/10 00:18:01;;;;;;;27.30;14.40;;;21.20;99.90;;;;;;5131061;27;45484;-72
2023/07/10 00:20:28;;;;;;;27.63;15.38;;;21.10;99.90;;;;;;5144310;27;45376;-72
2023/07/10 00:22:56;;;;;;;23.67;15.63;;;21.00;99.90;;;;;;5125179;27;45369;-72
2023/07/10 00:25:24;;;;;;;29.65;16.33;;;21.00;99.90;;;;;;5143108;27;45602;-72
2023/07/10 00:27:51;;;;;;;28.20;16.20;;;21.00;99.90;;;;;;5126683;27;45260;-72
2023/07/10 00:30:19;;;;;;;27.63;15.57;;;21.00;99.90;;;;;;5142961;27;45362;-72
2023/07/10 00:32:51;;;;;;;26.30;14.60;;;21.00;99.90;;;;;;5138924;27;45549;-72
2023/07/10 00:35:20;;;;;;;29.88;14.40;;;21.00;99.90;;;;;;5125285;27;45368;-72
2023/07/10 00:37:49;;;;;;;25.40;14.50;;;21.00;99.90;;;;;;5139115;27;47087;-72
2023/07/10 00:40:22;;;;;;;30.70;14.18;;;20.90;99.90;;;;;;5131868;27;45902;-72
2023/07/10 00:43:01;;;;;;;29.73;14.70;;;20.90;99.90;;;;;;5141971;27;45409;-71
2023/07/10 00:45:28;;;;;;;25.50;14.23;;;20.90;99.90;;;;;;5139481;27;45204;-72
2023/07/10 00:48:04;;;;;;;29.98;14.48;;;20.90;99.90;;;;;;5132520;27;46570;-72
2023/07/10 00:50:37;;;;;;;23.52;13.25;;;20.90;99.90;;;;;;5129451;27;45760;-71
2023/07/10 00:53:12;;;;;;;22.88;13.57;;;20.90;99.90;;;;;;5140804;27;45359;-72
2023/07/10 00:55:40;;;;;;;18.98;12.77;;;20.90;99.90;;;;;;5131003;27;45421;-72
2023/07/10 00:58:21;;;;;;;25.65;13.82;;;21.00;99.90;;;;;;5131850;27;48348;-73
2023/07/10 01:01:05;;;;;;;26.83;12.73;;;21.00;99.90;;;;;;5129772;27;45307;-72
2023/07/10 01:03:33;;;;;;;27.20;13.88;;;21.00;99.90;;;;;;5128033;27;45282;-72
2023/07/10 01:06:05;;;;;;;30.00;15.27;;;21.10;99.90;;;;;;5135731;27;45298;-71
2023/07/10 01:08:32;;;;;;;26.35;15.50;;;20.90;99.90;;;;;;5129730;27;47113;-72
2023/07/10 01:11:00;;;;;;;26.15;15.88;;;20.90;99.90;;;;;;5141770;27;45857;-72
2023/07/10 01:13:26;;;;;;;28.17;16.48;;;20.90;99.90;;;;;;5128412;27;45415;-72
2023/07/10 01:15:53;;;;;;;24.75;17.38;;;20.90;99.90;;;;;;5127842;27;45471;-71
2023/07/10 01:18:24;;;;;;;28.08;17.02;;;20.90;99.90;;;;;;5134944;27;46727;-72
2023/07/10 01:21:01;;;;;;;29.20;17.13;;;20.90;99.90;;;;;;5135336;27;45400;-72
2023/07/10 01:23:28;;;;;;;33.22;17.67;;;20.90;99.90;;;;;;5140747;27;45373;-72
2023/07/10 01:25:59;;;;;;;27.92;17.13;;;20.90;99.90;;;;;;5131979;27;45534;-71
2023/07/10 01:28:27;;;;;;;26.73;17.90;;;20.90;99.90;;;;;;5125749;27;45426;-72
2023/07/10 01:30:56;;;;;;;31.25;17.42;;;20.90;99.90;;;;;;5132637;27;45475;-72
2023/07/10 01:33:27;;;;;;;25.13;17.30;;;20.90;99.90;;;;;;5135145;27;45510;-72
2023/07/10 01:35:56;;;;;;;21.00;16.58;;;20.80;99.90;;;;;;5133460;27;45407;-72
2023/07/10 01:38:31;;;;;;;30.45;17.63;;;20.80;99.90;;;;;;5138308;27;47132;-73
2023/07/10 01:41:01;;;;;;;31.63;17.88;;;20.80;99.90;;;;;;5131925;27;45358;-74
2023/07/10 01:43:28;;;;;;;28.45;17.45;;;20.70;99.90;;;;;;5134041;27;45518;-72
2023/07/10 01:45:55;;;;;;;26.33;15.88;;;20.80;99.90;;;;;;5127845;27;45394;-72
2023/07/10 01:48:27;;;;;;;22.52;15.75;;;20.80;99.90;;;;;;5134896;27;46598;-72
2023/07/10 01:50:53;;;;;;;22.75;15.63;;;20.90;99.90;;;;;;5130500;27;45585;-72
2023/07/10 01:53:20;;;;;;;25.80;16.40;;;20.90;99.90;;;;;;5127748;27;45387;-71
2023/07/10 01:55:49;;;;;;;25.73;16.15;;;20.90;99.90;;;;;;5123489;27;45496;-71
2023/07/10 01:58:15;;;;;;;26.88;16.75;;;20.80;99.90;;;;;;5133046;27;45425;-72
2023/07/10 02:00:42;;;;;;;24.52;16.52;;;20.70;99.90;;;;;;5128300;27;45364;-72
2023/07/10 02:03:09;;;;;;;27.38;16.83;;;20.70;99.90;;;;;;5136700;27;45275;-73
2023/07/10 02:05:36;;;;;;;25.10;17.23;;;20.70;99.90;;;;;;5132932;27;45457;-72
2023/07/10 02:08:02;;;;;;;37.72;16.75;;;20.70;99.90;;;;;;5141637;27;46626;-72
2023/07/10 02:10:29;;;;;;;21.77;16.02;;;20.80;99.90;;;;;;5138750;27;45527;-73
2023/07/10 02:12:59;;;;;;;30.05;17.67;;;20.80;99.90;;;;;;5140312;27;45431;-72
2023/07/10 02:15:26;;;;;;;28.48;18.77;;;20.90;99.90;;;;;;5136794;27;45551;-72
2023/07/10 02:17:57;;;;;;;26.92;18.80;;;20.90;99.90;;;;;;5139772;27;47067;-72
2023/07/10 02:20:24;;;;;;;34.75;19.42;;;20.90;99.90;;;;;;5134135;27;45611;-72
2023/07/10 02:22:51;;;;;;;34.58;19.90;;;21.00;99.90;;;;;;5140814;27;45339;-71
2023/07/10 02:25:17;;;;;;;28.38;18.92;;;20.90;99.90;;;;;;5139360;27;45393;-72
2023/07/10 02:27:44;;;;;;;40.75;19.85;;;20.90;99.90;;;;;;5137683;27;45525;-72
2023/07/10 02:30:13;;;;;;;30.75;19.67;;;20.90;99.90;;;;;;5134700;27;45434;-72
2023/07/10 02:32:40;;;;;;;31.38;20.20;;;20.70;99.90;;;;;;5144464;27;45520;-72
2023/07/10 02:35:07;;;;;;;37.92;20.38;;;20.60;99.90;;;;;;5132047;27;45336;-73
2023/07/10 02:37:33;;;;;;;38.97;21.33;;;20.60;99.90;;;;;;5137326;27;48084;-72
2023/07/10 02:40:00;;;;;;;31.55;20.70;;;20.60;99.90;;;;;;5134743;27;45348;-72
2023/07/10 02:42:27;;;;;;;31.35;19.90;;;20.50;99.90;;;;;;5138831;27;45363;-72
2023/07/10 02:44:54;;;;;;;37.42;20.48;;;20.50;99.90;;;;;;5131393;27;45473;-72
2023/07/10 02:47:22;;;;;;;31.45;19.08;;;20.50;99.90;;;;;;5139751;27;48169;-73
2023/07/10 02:49:49;;;;;;;29.80;19.05;;;20.50;99.90;;;;;;5139535;27;45280;-72
2023/07/10 02:52:16;;;;;;;29.30;17.98;;;20.50;99.90;;;;;;5136014;27;45467;-71
2023/07/10 02:54:43;;;;;;;34.35;19.25;;;20.60;99.90;;;;;;5126985;27;45279;-72
2023/07/10 02:57:09;;;;;;;32.17;19.17;;;20.60;99.90;;;;;;5134298;27;45458;-72
2023/07/10 02:59:36;;;;;;;28.67;18.30;;;20.60;99.90;;;;;;5126434;27;45754;-72
2023/07/10 03:02:03;;;;;;;32.42;19.08;;;20.60;99.90;;;;;;5126877;27;45469;-72
2023/07/10 03:04:31;;;;;;;30.33;18.88;;;20.50;99.90;;;;;;5126607;27;45772;-72
2023/07/10 03:06:58;;;;;;;29.58;18.50;;;20.40;99.90;;;;;;5125598;27;48083;-71
2023/07/10 03:09:24;;;;;;;31.27;18.60;;;20.40;99.90;;;;;;5125044;27;45321;-72
2023/07/10 03:11:51;;;;;;;31.50;18.50;;;20.30;99.90;;;;;;5133880;27;45299;-72
2023/07/10 03:14:18;;;;;;;32.60;18.50;;;20.30;99.90;;;;;;5139082;27;45454;-72
2023/07/10 03:16:45;;;;;;;32.17;18.75;;;20.30;99.90;;;;;;5140980;27;45523;-72
2023/07/10 03:19:11;;;;;;;30.30;17.83;;;20.40;99.90;;;;;;5135600;27;45498;-72
2023/07/10 03:21:40;;;;;;;30.45;16.98;;;20.60;99.90;;;;;;5137161;27;45367;-72
2023/07/10 03:24:07;;;;;;;27.42;15.98;;;20.80;99.90;;;;;;5134030;27;45354;-73
2023/07/10 03:26:33;;;;;;;35.97;17.20;;;21.00;99.90;;;;;;5144349;27;45456;-72
2023/07/10 03:29:07;;;;;;;27.65;16.55;;;21.00;99.90;;;;;;5135080;27;45399;-72
2023/07/10 03:31:34;;;;;;;27.13;15.13;;;21.00;99.90;;;;;;5136780;27;45422;-72
2023/07/10 03:34:01;;;;;;;25.73;14.88;;;20.90;99.90;;;;;;5139760;27;45545;-71
2023/07/10 03:36:28;;;;;;;32.63;16.05;;;21.00;99.90;;;;;;5139658;27;48482;-73
2023/07/10 03:38:56;;;;;;;26.35;14.73;;;21.00;99.90;;;;;;5134230;27;45389;-72
2023/07/10 03:41:23;;;;;;;34.40;14.90;;;21.00;99.90;;;;;;5130926;27;45581;-72
2023/07/10 03:43:50;;;;;;;22.85;13.63;;;21.00;99.90;;;;;;5131422;27;45547;-71
2023/07/10 03:46:17;;;;;;;24.98;12.68;;;20.90;99.90;;;;;;5131809;27;45382;-72
2023/07/10 03:48:45;;;;;;;23.45;13.48;;;20.90;99.90;;;;;;5135524;27;45303;-72
2023/07/10 03:51:12;;;;;;;24.40;11.65;;;20.90;99.90;;;;;;5132607;27;45347;-73
2023/07/10 03:53:39;;;;;;;22.23;12.55;;;20.80;99.90;;;;;;5138238;27;45680;-73
2023/07/10 03:56:08;;;;;;;21.73;11.57;;;20.90;99.90;;;;;;5133356;27;46948;-72
2023/07/10 03:58:36;;;;;;;18.77;11.77;;;21.00;99.90;;;;;;5132272;27;45290;-72
2023/07/10 04:01:03;;;;;;;21.75;11.15;;;21.00;99.90;;;;;;5132372;27;45405;-72
2023/07/10 04:03:32;;;;;;;21.40;10.65;;;20.90;99.90;;;;;;5136468;27;45416;-72
2023/07/10 04:05:59;;;;;;;21.23;10.35;;;20.90;99.90;;;;;;5134909;27;47442;-72
2023/07/10 04:08:28;;;;;;;20.70;10.40;;;20.90;99.90;;;;;;5137545;27;46059;-72
2023/07/10 04:10:56;;;;;;;19.25;10.48;;;20.80;99.90;;;;;;5129158;27;45424;-72
2023/07/10 04:13:24;;;;;;;17.38;10.27;;;20.90;99.90;;;;;;5135649;27;45580;-72
2023/07/10 04:16:03;;;;;;;16.50;9.77;;;20.90;99.90;;;;;;5130104;27;46276;-73
2023/07/10 04:18:32;;;;;;;18.55;9.23;;;20.90;99.90;;;;;;5128918;27;45521;-72
2023/07/10 04:20:59;;;;;;;15.90;8.63;;;20.90;99.90;;;;;;5136425;27;45342;-73
2023/07/10 04:23:27;;;;;;;14.55;8.27;;;21.10;99.90;;;;;;5131913;27;45550;-72
2023/07/10 04:25:54;;;;;;;14.43;8.43;;;21.10;99.90;;;;;;5131809;27;46858;-72
2023/07/10 04:28:21;;;;;;;20.63;8.55;;;21.10;99.90;;;;;;5143281;27;46082;-72
2023/07/10 04:30:51;;;;;;;15.60;8.35;;;21.10;99.90;;;;;;5131803;27;45410;-72
2023/07/10 04:33:18;;;;;;;17.65;8.57;;;21.20;99.90;;;;;;5140080;27;45366;-72
2023/07/10 04:35:52;;;;;;;15.98;8.00;;;21.20;99.90;;;;;;5131553;27;46279;-72
2023/07/10 04:38:18;;;;;;;13.10;7.05;;;21.20;99.90;;;;;;5133316;27;45482;-72
2023/07/10 04:40:52;;;;;;;19.30;8.32;;;21.20;99.90;;;;;;5142967;27;45404;-72
2023/07/10 04:43:19;;;;;;;15.43;7.60;;;21.30;99.90;;;;;;5127445;27;45318;-72
2023/07/10 04:45:46;;;;;;;17.95;7.65;;;21.20;99.90;;;;;;5135483;27;45344;-72
2023/07/10 04:48:14;;;;;;;14.50;6.80;;;21.30;99.90;;;;;;5138701;27;45603;-72
2023/07/10 04:50:44;;;;;;;12.45;6.70;;;21.20;99.90;;;;;;5137439;27;45510;-73
2023/07/10 04:53:11;;;;;;;21.35;7.28;;;21.10;99.90;;;;;;5130512;27;45330;-72
2023/07/10 04:55:38;;;;;;;14.43;6.57;;;21.20;99.90;;;;;;5139403;27;46610;-72
2023/07/10 04:58:05;;;;;;;16.70;6.70;;;21.20;99.90;;;;;;5131920;27;46071;-71
2023/07/10 05:00:32;;;;;;;11.65;6.10;;;21.20;99.90;;;;;;5139903;27;45446;-72
2023/07/10 05:02:58;;;;;;;14.85;6.38;;;21.20;99.90;;;;;;5124739;27;45438;-71
2023/07/10 05:05:28;;;;;;;10.00;6.32;;;21.20;99.90;;;;;;5132386;27;48855;-77
2023/07/10 05:07:55;;;;;;;10.55;5.70;;;21.20;99.90;;;;;;5127760;27;45954;-76
2023/07/10 05:10:21;;;;;;;17.02;6.47;;;21.20;99.90;;;;;;5128143;27;45191;-77
2023/07/10 05:12:48;;;;;;;19.23;7.00;;;21.20;99.90;;;;;;5128052;27;45125;-76
2023/07/10 05:15:15;;;;;;;15.30;6.80;;;21.20;99.90;;;;;;5128637;27;47077;-75
2023/07/10 05:17:42;;;;;;;13.55;5.95;;;21.20;99.90;;;;;;5127802;27;45374;-74
2023/07/10 05:20:10;;;;;;;14.15;6.75;;;21.20;99.90;;;;;;5134389;27;45596;-73
2023/07/10 05:22:38;;;;;;;12.05;5.50;;;21.30;99.90;;;;;;5140467;27;45412;-76
2023/07/10 05:25:06;;;;;;;11.07;5.78;;;21.30;99.90;;;;;;5148615;27;46397;-76
2023/07/10 05:27:32;;;;;;;12.60;5.80;;;21.30;99.90;;;;;;5148625;27;45186;-75
2023/07/10 05:29:59;;;;;;;14.18;5.50;;;21.30;99.90;;;;;;5133607;27;45463;-73
2023/07/10 05:32:26;;;;;;;13.73;5.43;;;21.30;99.90;;;;;;5138572;27;45391;-73
2023/07/10 05:34:53;;;;;;;14.77;6.00;;;21.30;99.90;;;;;;5140467;27;47237;-73
2023/07/10 05:37:19;;;;;;;11.27;5.32;;;21.40;99.90;;;;;;5136258;27;45337;-73
2023/07/10 05:39:47;;;;;;;11.75;5.25;;;21.40;99.90;;;;;;5133188;27;45241;-73
2023/07/10 05:42:14;;;;;;;13.32;5.28;;;21.40;99.90;;;;;;5139511;27;45433;-71
2023/07/10 05:44:41;;;;;;;9.88;5.20;;;21.40;99.90;;;;;;5139342;27;47791;-71
2023/07/10 05:47:08;;;;;;;11.20;4.90;;;21.50;99.90;;;;;;5136284;27;45314;-71
2023/07/10 05:49:34;;;;;;;9.07;4.82;;;21.40;99.90;;;;;;5136682;27;45215;-71
2023/07/10 05:52:01;;;;;;;11.70;5.28;;;21.40;99.90;;;;;;5128373;27;45555;-71
2023/07/10 05:54:28;;;;;;;9.93;4.45;;;21.40;99.90;;;;;;5134772;27;47049;-71
2023/07/10 05:56:56;;;;;;;11.07;4.82;;;21.40;99.90;;;;;;5138095;27;45525;-72
2023/07/10 05:59:23;;;;;;;11.80;5.28;;;21.40;99.90;;;;;;5130643;27;45378;-71
2023/07/10 06:01:49;;;;;;;10.95;4.40;;;21.30;99.90;;;;;;5135176;27;45635;-71
2023/07/10 06:04:16;;;;;;;12.25;4.22;;;21.40;99.90;;;;;;5144570;27;46859;-71
2023/07/10 06:06:44;;;;;;;11.38;5.00;;;21.40;99.90;;;;;;5141625;27;45640;-71
2023/07/10 06:09:11;;;;;;;10.80;4.32;;;21.40;99.90;;;;;;5139434;27;45429;-71
2023/07/10 06:11:38;;;;;;;10.13;5.30;;;21.40;99.90;;;;;;5132795;27;45768;-71
2023/07/10 06:14:06;;;;;;;11.98;4.63;;;21.40;99.90;;;;;;5141824;27;47833;-71
2023/07/10 06:16:33;;;;;;;7.28;4.35;;;21.40;99.90;;;;;;5128753;27;45421;-71
2023/07/10 06:18:59;;;;;;;9.65;4.20;;;21.40;99.90;;;;;;5128667;27;45391;-71
2023/07/10 06:21:26;;;;;;;13.63;4.82;;;21.40;99.90;;;;;;5132323;27;45286;-71
2023/07/10 06:23:53;;;;;;;12.50;4.68;;;21.40;99.90;;;;;;5137024;27;46299;-71
2023/07/10 06:26:20;;;;;;;8.85;4.85;;;21.40;99.90;;;;;;5143608;27;45314;-72
2023/07/10 06:28:46;;;;;;;11.13;4.30;;;21.30;99.90;;;;;;5135231;27;45330;-71
2023/07/10 06:31:15;;;;;;;6.85;4.15;;;21.30;99.90;;;;;;5134799;27;45558;-71
2023/07/10 06:33:41;;;;;;;12.63;4.30;;;21.40;99.90;;;;;;5143625;27;48092;-71
2023/07/10 06:36:09;;;;;;;11.60;3.85;;;21.30;99.90;;;;;;5140048;27;45471;-71
2023/07/10 06:38:36;;;;;;;9.40;4.40;;;21.20;99.90;;;;;;5139394;27;45264;-71
2023/07/10 06:41:05;;;;;;;10.25;3.42;;;21.30;99.90;;;;;;5142511;27;45352;-71
2023/07/10 06:43:32;;;;;;;10.88;3.70;;;21.20;99.90;;;;;;5151933;27;47902;-71
2023/07/10 06:45:59;;;;;;;10.50;3.45;;;21.20;99.90;;;;;;5141112;27;45505;-71
2023/07/10 06:48:27;;;;;;;7.18;3.20;;;21.30;99.90;;;;;;5136808;27;45353;-72
2023/07/10 06:50:55;;;;;;;10.70;3.40;;;21.30;99.90;;;;;;5141562;27;45343;-71
2023/07/10 06:53:23;;;;;;;6.47;2.88;;;21.30;99.90;;;;;;5127135;27;46406;-73
2023/07/10 06:55:54;;;;;;;5.75;2.97;;;21.40;99.90;;;;;;5149676;27;45242;-76
2023/07/10 06:58:21;;;;;;;5.30;2.38;;;21.40;99.90;;;;;;5147329;27;45311;-76
2023/07/10 07:00:48;;;;;;;7.25;2.75;;;21.50;99.90;;;;;;5147073;27;45491;-74
2023/07/10 07:03:14;;;;;;;5.93;2.70;;;21.40;99.90;;;;;;5138292;27;46594;-73
2023/07/10 07:05:43;;;;;;;9.02;2.33;;;21.40;99.90;;;;;;5141072;27;45399;-73
2023/07/10 07:08:10;;;;;;;7.75;3.30;;;21.50;99.90;;;;;;5142814;27;45359;-73
2023/07/10 07:10:41;;;;;;;8.02;3.08;;;21.50;99.90;;;;;;5144901;27;45564;-72
2023/07/10 07:13:08;;;;;;;7.30;3.05;;;21.50;99.90;;;;;;5133923;27;45373;-72
2023/07/10 07:15:35;;;;;;;5.38;2.40;;;21.60;99.90;;;;;;5138801;27;45277;-72
2023/07/10 07:18:03;;;;;;;6.38;2.95;;;21.70;99.90;;;;;;5146428;27;45403;-72
2023/07/10 07:20:30;;;;;;;5.70;2.67;;;21.70;99.90;;;;;;5139995;27;45568;-72
2023/07/10 07:22:58;;;;;;;6.10;2.83;;;21.70;99.90;;;;;;5139097;27;46379;-71
2023/07/10 07:25:25;;;;;;;6.50;2.83;;;21.70;99.90;;;;;;5145958;27;45452;-72
2023/07/10 07:27:51;;;;;;;9.30;3.15;;;21.70;99.90;;;;;;5145727;27;45372;-71
2023/07/10 07:30:18;;;;;;;4.72;2.83;;;21.60;99.90;;;;;;5135746;27;45407;-72
2023/07/10 07:32:47;;;;;;;7.75;3.13;;;21.60;99.90;;;;;;5143528;27;46425;-71
2023/07/10 07:35:14;;;;;;;5.88;3.03;;;21.60;99.90;;;;;;5146533;27;45408;-71
2023/07/10 07:37:40;;;;;;;9.25;3.22;;;21.60;99.90;;;;;;5141845;27;45350;-71
2023/07/10 07:40:10;;;;;;;8.05;3.58;;;21.60;99.90;;;;;;5141307;27;45457;-71
2023/07/10 07:42:37;;;;;;;10.20;2.95;;;21.60;99.90;;;;;;5146331;27;45393;-71
2023/07/10 07:45:05;;;;;;;8.48;3.28;;;21.60;99.90;;;;;;5141055;27;45315;-71
2023/07/10 07:47:31;;;;;;;10.02;3.10;;;21.60;99.90;;;;;;5145001;27;45337;-71
2023/07/10 07:49:58;;;;;;;6.32;2.35;;;21.70;99.90;;;;;;5140437;27;45541;-71
2023/07/10 07:52:25;;;;;;;4.50;2.10;;;21.70;99.90;;;;;;5139455;27;47479;-71
2023/07/10 07:54:52;;;;;;;5.75;2.33;;;21.70;99.90;;;;;;5134216;27;45394;-71
2023/07/10 07:57:22;;;;;;;3.95;2.10;;;21.80;99.90;;;;;;5132908;27;45270;-71
2023/07/10 07:59:49;;;;;;;3.92;2.10;;;21.80;99.90;;;;;;5151087;27;45667;-71
2023/07/10 08:02:16;;;;;;;9.80;2.63;;;21.70;99.90;;;;;;5145787;27;47221;-71
2023/07/10 08:04:43;;;;;;;5.13;2.33;;;21.70;99.90;;;;;;5146272;27;45765;-73
2023/07/10 08:07:10;;;;;;;8.02;2.13;;;21.80;99.90;;;;;;5141869;27;45354;-73
2023/07/10 08:09:36;;;;;;;6.90;2.38;;;21.70;99.90;;;;;;5149505;27;45272;-72
2023/07/10 08:12:04;;;;;;;4.15;2.00;;;21.70;99.90;;;;;;5136118;27;47099;-72
2023/07/10 08:14:32;;;;;;;4.65;2.13;;;21.70;99.90;;;;;;5137067;27;45406;-72
2023/07/10 08:16:58;;;;;;;4.15;2.10;;;21.70;99.90;;;;;;5153171;27;45361;-72
2023/07/10 08:19:25;;;;;;;5.57;2.47;;;21.80;99.90;;;;;;5139290;27;45362;-73
2023/07/10 08:21:54;;;;;;;5.93;2.10;;;21.80;99.90;;;;;;5134091;27;47999;-72
2023/07/10 08:24:21;;;;;;;6.40;2.58;;;21.80;99.90;;;;;;5141812;27;45321;-72
2023/07/10 08:26:48;;;;;;;7.15;1.92;;;21.80;99.90;;;;;;5145465;27;45359;-73
2023/07/10 08:29:26;;;;;;;8.18;2.67;;;21.90;99.90;;;;;;5142383;27;45570;-72
2023/07/10 08:31:56;;;;;;;4.05;2.20;;;22.00;99.90;;;;;;5139059;27;47347;-72
2023/07/10 08:34:24;;;;;;;5.40;2.72;;;22.00;99.90;;;;;;5142958;27;45259;-73
2023/07/10 08:36:52;;;;;;;4.55;2.40;;;22.00;99.90;;;;;;5139243;27;45396;-73
2023/07/10 08:39:19;;;;;;;8.60;2.83;;;22.00;99.90;;;;;;5142404;27;45485;-72
2023/07/10 08:41:49;;;;;;;5.70;2.05;;;22.00;99.90;;;;;;5143447;27;47532;-72
2023/07/10 08:44:16;;;;;;;8.63;2.15;;;22.10;99.90;;;;;;5144959;27;45676;-72
2023/07/10 08:46:43;;;;;;;5.95;1.85;;;22.10;99.90;;;;;;5145260;27;45463;-72
2023/07/10 08:49:17;;;;;;;3.78;1.80;;;22.10;99.90;;;;;;5138973;27;45479;-72
2023/07/10 08:51:57;;;;;;;5.78;1.85;;;22.10;99.90;;;;;;5135259;27;45404;-72
2023/07/10 08:54:24;;;;;;;6.05;2.00;;;22.00;99.90;;;;;;5143168;27;45400;-72
2023/07/10 08:56:59;;;;;;;3.80;1.60;;;22.10;99.90;;;;;;5138769;27;45506;-72
2023/07/10 08:59:38;;;;;;;4.15;1.90;;;22.20;99.90;;;;;;5137328;27;45348;-72
2023/07/10 09:02:18;;;;;;;4.55;1.85;;;22.20;99.90;;;;;;5131444;27;45474;-72
2023/07/10 09:04:48;;;;;;;3.85;1.90;;;22.20;99.90;;;;;;5153077;27;46176;-70
2023/07/10 09:07:16;;;;;;;5.05;1.48;;;22.20;99.90;;;;;;5127043;27;45460;-72
2023/07/10 09:09:47;;;;;;;4.00;1.20;;;22.20;99.90;;;;;;5143508;27;45200;-70
2023/07/10 09:12:18;;;;;;;4.30;1.27;;;22.20;99.90;;;;;;5138019;27;46276;-70
2023/07/10 09:14:50;;;;;;;2.78;1.30;;;22.30;99.90;;;;;;5126801;27;45325;-71
2023/07/10 09:17:25;;;;;;;10.55;6.30;;;22.30;99.90;;;;;;5132146;27;45355;-70
2023/07/10 09:19:57;;;;;;;3.25;1.50;;;22.30;99.90;;;;;;5134816;27;45272;-70
2023/07/10 09:22:25;;;;;;;3.83;1.52;;;22.30;99.70;;;;;;5132396;27;47634;-71
2023/07/10 09:24:51;;;;;;;8.07;1.27;;;22.30;99.90;;;;;;5146706;27;45284;-70
2023/07/10 09:27:18;;;;;;;2.28;1.17;;;22.20;99.90;;;;;;5133511;27;45369;-71
2023/07/10 09:29:49;;;;;;;4.90;1.60;;;22.30;99.90;;;;;;5146404;27;45511;-70
2023/07/10 09:32:18;;;;;;;3.50;1.08;;;22.40;99.90;;;;;;5135530;27;46081;-71
2023/07/10 09:34:48;;;;;;;4.70;1.30;;;22.40;99.90;;;;;;5135474;27;45761;-69
2023/07/10 09:37:19;;;;;;;4.43;1.08;;;22.40;99.90;;;;;;5136214;27;45553;-69
2023/07/10 09:39:46;;;;;;;3.25;1.20;;;22.40;99.90;;;;;;5136371;27;45246;-70
2023/07/10 09:42:16;;;;;;;4.10;1.70;;;22.40;99.90;;;;;;5134613;27;47515;-71
2023/07/10 09:44:50;;;;;;;2.55;0.93;;;22.50;99.90;;;;;;5134802;27;45319;-69
2023/07/10 09:47:17;;;;;;;3.95;1.35;;;22.50;99.90;;;;;;5128358;27;45240;-69
2023/07/10 09:49:47;;;;;;;2.53;1.27;;;22.50;99.90;;;;;;5144276;27;45344;-70
2023/07/10 09:52:23;;;;;;;5.38;1.30;;;22.60;99.90;;;;;;5132061;27;45407;-69
2023/07/10 09:54:57;;;;;;;3.80;1.20;;;22.60;99.90;;;;;;5136705;27;45480;-69
2023/07/10 09:57:24;;;;;;;3.28;1.15;;;22.70;99.90;;;;;;5133931;27;45575;-69
2023/07/10 09:59:53;;;;;;;2.30;1.10;;;22.70;99.90;;;;;;5130893;27;45670;-70
2023/07/10 10:02:22;;;;;;;6.40;1.73;;;22.60;99.80;;;;;;5137728;27;45468;-69
2023/07/10 10:04:53;;;;;;;3.95;1.40;;;22.60;99.90;;;;;;5141561;27;45524;-69
2023/07/10 10:07:22;;;;;;;4.78;1.67;;;22.70;99.90;;;;;;5133107;27;45466;-70
2023/07/10 10:10:03;;;;;;;3.03;1.40;;;22.70;99.90;;;;;;5134282;27;45236;-70
2023/07/10 10:12:34;;;;;;;4.43;1.35;;;22.70;99.90;;;;;;5140912;27;47930;-69
2023/07/10 10:15:08;;;;;;;2.20;1.20;;;22.70;99.90;;;;;;5135704;27;45376;-69
2023/07/10 10:17:41;;;;;;;5.35;1.30;;;22.70;99.90;;;;;;5141674;27;45476;-70
2023/07/10 10:20:16;;;;;;;2.78;1.33;;;22.70;99.90;;;;;;5141401;27;45440;-70
2023/07/10 10:22:45;;;;;;;3.17;1.35;;;22.80;99.90;;;;;;5147618;27;45496;-69
2023/07/10 10:25:16;;;;;;;3.42;1.35;;;22.80;99.90;;;;;;5145435;27;45429;-69
2023/07/10 10:27:51;;;;;;;4.55;1.38;;;22.80;99.90;;;;;;5143559;27;45419;-71
2023/07/10 10:30:33;;;;;;;4.20;1.42;;;22.80;99.90;;;;;;5148379;27;45515;-69
2023/07/10 10:33:07;;;;;;;5.35;1.48;;;22.80;99.90;;;;;;5150637;27;45228;-69
2023/07/10 10:35:50;;;;;;;3.15;1.33;;;22.90;99.90;;;;;;5146773;27;45382;-69
2023/07/10 10:38:35;;;;;;;4.05;1.33;;;22.90;99.90;;;;;;5150062;27;45279;-70
2023/07/10 10:41:13;;;;;;;5.25;1.23;;;22.90;99.90;;;;;;5144363;27;45313;-69
2023/07/10 10:43:48;;;;;;;3.60;1.40;;;22.90;99.90;;;;;;5128033;27;45452;-70
2023/07/10 10:46:34;;;;;;;3.92;1.50;;;23.00;99.90;;;;;;5127634;27;45761;-69
2023/07/10 10:49:20;;;;;;;9.00;1.25;;;23.00;99.50;;;;;;5126759;27;45420;-71
2023/07/10 10:51:54;;;;;;;4.40;1.42;;;23.00;98.10;;;;;;5121638;27;45627;-70
2023/07/10 10:54:34;;;;;;;3.17;1.23;;;23.00;99.80;;;;;;5133943;27;45293;-69
2023/07/10 10:57:19;;;;;;;4.93;1.75;;;23.10;99.60;;;;;;5143506;27;45406;-69
2023/07/10 10:59:55;;;;;;;3.60;1.40;;;23.10;99.80;;;;;;5135442;27;45356;-69
2023/07/10 11:02:37;;;;;;;5.65;1.30;;;23.10;99.20;;;;;;5136795;27;45643;-69
2023/07/10 11:05:13;;;;;;;3.55;1.10;;;23.10;99.00;;;;;;5140896;27;47108;-69
2023/07/10 11:07:41;;;;;;;6.75;1.38;;;23.10;99.90;;;;;;5138308;27;45430;-70
2023/07/10 11:10:16;;;;;;;2.08;0.95;;;23.10;96.90;;;;;;5133467;27;45347;-69
2023/07/10 11:12:43;;;;;;;4.78;1.60;;;23.10;97.50;;;;;;5137788;27;45490;-70
2023/07/10 11:15:17;;;;;;;4.55;1.58;;;23.10;96.20;;;;;;5134970;27;47978;-69
2023/07/10 11:17:47;;;;;;;6.53;1.30;;;23.20;99.70;;;;;;5141048;27;45903;-69
2023/07/10 11:20:16;;;;;;;3.75;1.33;;;23.20;99.00;;;;;;5148684;27;45389;-70
2023/07/10 11:22:51;;;;;;;6.72;1.40;;;23.20;98.60;;;;;;5136796;27;45459;-69
2023/07/10 11:25:34;;;;;;;2.35;0.90;;;23.20;98.10;;;;;;5142072;27;46263;-69
2023/07/10 11:28:19;;;;;;;3.03;1.10;;;23.30;94.80;;;;;;5147512;27;45555;-69
2023/07/10 11:30:45;;;;;;;7.25;1.30;;;23.30;94.60;;;;;;5138165;27;45456;-69
2023/07/10 11:33:18;;;;;;;3.25;1.30;;;23.30;95.10;;;;;;5146581;27;45428;-69
2023/07/10 11:36:13;;;;;;;5.93;1.30;;;23.30;94.00;;;;;;5138125;27;46308;-69
2023/07/10 11:38:55;;;;;;;4.90;1.27;;;23.30;93.50;;;;;;5134181;27;45331;-69
2023/07/10 11:41:29;;;;;;;4.90;1.20;;;23.40;96.60;;;;;;5142488;27;45415;-70
2023/07/10 11:44:17;;;;;;;2.70;1.20;;;23.40;93.10;;;;;;5144696;27;45209;-69
2023/07/10 11:47:00;;;;;;;4.70;1.30;;;23.40;94.20;;;;;;5141953;27;46091;-70
2023/07/10 11:49:43;;;;;;;8.90;1.60;;;23.40;94.80;;;;;;5142341;27;45272;-69
2023/07/10 11:52:26;;;;;;;7.07;1.30;;;23.40;95.30;;;;;;5149933;27;45262;-69
2023/07/10 11:55:09;;;;;;;6.63;1.15;;;23.40;94.50;;;;;;5137320;27;45407;-69
2023/07/10 11:57:37;;;;;;;8.35;1.52;;;23.40;93.90;;;;;;5137595;27;45507;-69
2023/07/10 12:00:20;;;;;;;5.68;1.40;;;23.50;94.20;;;;;;5143529;27;45253;-70
2023/07/10 12:02:48;;;;;;;4.70;1.40;;;23.50;92.70;;;;;;5129949;27;45439;-69
2023/07/10 12:05:19;;;;;;;9.93;1.38;;;23.50;93.10;;;;;;5143779;27;45284;-69
2023/07/10 12:08:02;;;;;;;2.05;0.95;;;23.50;92.60;;;;;;5130487;27;48075;-69
2023/07/10 12:10:31;;;;;;;4.88;1.10;;;23.40;98.40;;;;;;5135705;27;46296;-69
2023/07/10 12:13:01;;;;;;;7.20;1.85;;;23.30;96.20;;;;;;5137316;27;45509;-70
2023/07/10 12:15:28;;;;;;;5.75;1.52;;;23.40;94.10;;;;;;5139711;27;45184;-69
2023/07/10 12:17:56;;;;;;;5.45;1.38;;;23.40;95.60;;;;;;5145326;27;48176;-69
2023/07/10 12:20:27;;;;;;;5.97;1.63;;;23.40;94.20;;;;;;5126044;27;45398;-69
2023/07/10 12:22:56;;;;;;;3.70;1.10;;;23.50;95.10;;;;;;5141412;27;45327;-69
2023/07/10 12:25:23;;;;;;;9.65;1.73;;;23.50;93.40;;;;;;5140951;27;45616;-69
2023/07/10 12:27:50;;;;;;;6.07;1.38;;;23.50;93.80;;;;;;5138596;27;46472;-69
2023/07/10 12:30:22;;;;;;;2.97;0.90;;;23.50;93.70;;;;;;5132065;27;45362;-69
2023/07/10 12:32:53;;;;;;;5.05;1.30;;;23.50;91.10;;;;;;5139938;27;45443;-67
2023/07/10 12:35:29;;;;;;;6.00;1.27;;;23.50;91.40;;;;;;5134218;27;45763;-72
2023/07/10 12:37:58;;;;;;;4.43;1.23;;;23.40;93.80;;;;;;5134113;27;45280;-70
2023/07/10 12:40:25;;;;;;;3.97;1.30;;;23.40;93.50;;;;;;5144170;27;45320;-71
2023/07/10 12:42:51;;;;;;;6.88;1.33;;;23.50;93.40;;;;;;5138908;27;45391;-70
2023/07/10 12:45:29;;;;;;;5.47;1.65;;;23.50;96.50;;;;;;5125019;27;45503;-69
2023/07/10 12:48:03;;;;;;;4.32;1.20;;;23.70;95.40;;;;;;5129383;27;45359;-70
2023/07/10 12:50:37;;;;;;;4.75;1.35;;;23.60;93.20;;;;;;5136845;27;45382;-70